createdAt,value
2018-07-25T00:01:44.836Z,3.60
2018-07-25T00:04:12.014Z,3.80
2018-07-25T00:06:39.162Z,3.40
2018-07-25T00:09:07.314Z,3.17
2018-07-25T00:11:34.476Z,3.43
2018-07-25T00:14:01.630Z,3.57
2018-07-25T00:16:28.812Z,3.53
2018-07-25T00:18:55.933Z,3.73
2018-07-25T00:21:23.095Z,3.40
2018-07-25T00:23:50.813Z,3.10
2018-07-25T00:26:18.001Z,3.40
2018-07-25T00:28:45.138Z,3.43
2018-07-25T00:31:12.315Z,3.23
2018-07-25T00:33:39.471Z,3.40
2018-07-25T00:36:06.745Z,3.20
2018-07-25T00:38:33.977Z,3.70
2018-07-25T00:41:01.171Z,2.90
2018-07-25T00:43:28.390Z,3.57
2018-07-25T00:45:55.547Z,3.20
2018-07-25T00:48:22.699Z,3.30
2018-07-25T00:50:49.867Z,3.27
2018-07-25T00:53:17.163Z,3.20
2018-07-25T00:55:44.727Z,3.30
2018-07-25T00:58:11.552Z,3.20
2018-07-25T01:00:38.717Z,3.20
2018-07-25T01:03:05.904Z,3.40
2018-07-25T01:05:33.096Z,3.40
2018-07-25T01:08:00.276Z,3.17
2018-07-25T01:10:27.460Z,3.20
2018-07-25T01:12:54.642Z,3.20
2018-07-25T01:15:21.799Z,3.40
2018-07-25T01:17:48.978Z,3.30
2018-07-25T01:20:16.137Z,3.10
2018-07-25T01:22:43.312Z,3.20
2018-07-25T01:25:10.461Z,3.00
2018-07-25T01:27:37.600Z,3.50
2018-07-25T01:30:04.770Z,3.50
2018-07-25T01:32:31.899Z,3.70
2018-07-25T01:34:59.076Z,4.03
2018-07-25T01:37:26.227Z,3.73
2018-07-25T01:39:53.382Z,3.50
2018-07-25T01:42:20.527Z,3.40
2018-07-25T01:44:48.025Z,4.10
2018-07-25T01:47:15.239Z,3.70
2018-07-25T01:49:42.530Z,3.60
2018-07-25T01:52:09.681Z,3.70
2018-07-25T01:54:36.920Z,3.53
2018-07-25T01:57:04.395Z,3.27
2018-07-25T01:59:31.603Z,3.47
2018-07-25T02:01:59.388Z,3.40
2018-07-25T02:04:26.883Z,3.37
2018-07-25T02:06:54.059Z,3.50
2018-07-25T02:09:21.227Z,3.20
2018-07-25T02:11:48.373Z,3.23
2018-07-25T02:14:15.539Z,3.53
2018-07-25T02:16:42.697Z,3.20
2018-07-25T02:19:09.829Z,3.50
2018-07-25T02:21:37.073Z,3.40
2018-07-25T02:24:04.331Z,3.50
2018-07-25T02:26:31.511Z,3.50
2018-07-25T02:28:59.192Z,3.50
2018-07-25T02:31:26.516Z,3.53
2018-07-25T02:33:59.317Z,3.50
2018-07-25T02:36:26.524Z,3.57
2018-07-25T02:38:53.674Z,3.60
2018-07-25T02:41:20.899Z,3.40
2018-07-25T02:43:48.139Z,3.63
2018-07-25T02:46:15.280Z,4.00
2018-07-25T02:48:42.426Z,3.07
2018-07-25T02:51:09.592Z,3.90
2018-07-25T02:53:36.742Z,3.57
2018-07-25T02:56:04.516Z,3.67
2018-07-25T02:58:31.686Z,3.93
2018-07-25T03:00:58.836Z,4.00
2018-07-25T03:03:26.013Z,3.80
2018-07-25T03:05:53.220Z,4.00
2018-07-25T03:08:20.449Z,3.70
2018-07-25T03:10:54.649Z,3.60
2018-07-25T03:13:22.508Z,3.90
2018-07-25T03:15:58.862Z,3.80
2018-07-25T03:18:26.120Z,3.87
2018-07-25T03:20:53.299Z,3.83
2018-07-25T03:23:20.475Z,3.63
2018-07-25T03:25:47.809Z,3.57
2018-07-25T03:28:15.003Z,3.70
2018-07-25T03:30:42.712Z,3.70
2018-07-25T03:33:09.883Z,3.60
2018-07-25T03:35:37.047Z,3.40
2018-07-25T03:38:04.182Z,3.70
2018-07-25T03:40:31.381Z,3.50
2018-07-25T03:42:58.546Z,3.60
2018-07-25T03:45:25.704Z,3.50
2018-07-25T03:47:52.867Z,3.70
2018-07-25T03:50:20.097Z,4.00
2018-07-25T03:52:47.239Z,3.67
2018-07-25T03:55:15.076Z,3.60
2018-07-25T03:57:42.274Z,3.60
2018-07-25T04:00:09.439Z,3.60
2018-07-25T04:02:36.592Z,3.97
2018-07-25T04:05:03.802Z,3.80
2018-07-25T04:07:30.975Z,4.43
2018-07-25T04:09:58.121Z,4.00
2018-07-25T04:12:25.269Z,3.80
2018-07-25T04:14:52.438Z,3.90
2018-07-25T04:17:19.623Z,3.80
2018-07-25T04:19:46.818Z,3.60
2018-07-25T04:22:14.003Z,3.50
2018-07-25T04:24:41.173Z,3.57
2018-07-25T04:27:08.339Z,3.80
2018-07-25T04:29:35.515Z,4.03
2018-07-25T04:32:02.697Z,3.40
2018-07-25T04:34:29.840Z,3.77
2018-07-25T04:36:57.037Z,4.07
2018-07-25T04:39:24.210Z,3.70
2018-07-25T04:41:51.358Z,3.70
2018-07-25T04:44:18.533Z,4.00
2018-07-25T04:46:45.695Z,4.00
2018-07-25T04:49:12.890Z,3.70
2018-07-25T04:51:40.043Z,3.80
2018-07-25T04:54:07.308Z,3.90
2018-07-25T04:56:34.464Z,3.70
2018-07-25T04:59:01.654Z,3.60
2018-07-25T05:01:28.792Z,3.77
2018-07-25T05:03:56.060Z,4.10
2018-07-25T05:06:23.992Z,3.63
2018-07-25T05:08:51.175Z,3.67
2018-07-25T05:11:18.346Z,3.67
2018-07-25T05:13:46.187Z,4.00
2018-07-25T05:16:13.368Z,3.93
2018-07-25T05:18:40.551Z,4.00
2018-07-25T05:21:07.679Z,3.53
2018-07-25T05:23:34.868Z,4.00
2018-07-25T05:26:02.055Z,4.20
2018-07-25T05:28:29.234Z,3.70
2018-07-25T05:30:56.354Z,4.17
2018-07-25T05:33:23.496Z,3.97
2018-07-25T05:35:50.715Z,3.97
2018-07-25T05:38:18.531Z,4.00
2018-07-25T05:40:45.732Z,4.40
2018-07-25T05:43:12.888Z,4.30
2018-07-25T05:45:40.056Z,4.63
2018-07-25T05:48:07.225Z,4.47
2018-07-25T05:50:34.406Z,4.37
2018-07-25T05:53:01.564Z,3.90
2018-07-25T05:55:28.711Z,4.00
2018-07-25T05:57:55.942Z,3.77
2018-07-25T06:00:23.270Z,3.80
2018-07-25T06:02:50.516Z,3.97
2018-07-25T06:05:17.658Z,4.43
2018-07-25T06:07:44.823Z,4.00
2018-07-25T06:10:12.129Z,3.80
2018-07-25T06:12:39.317Z,4.27
2018-07-25T06:15:06.490Z,3.80
2018-07-25T06:17:33.704Z,4.70
2018-07-25T06:20:00.861Z,4.13
2018-07-25T06:22:28.059Z,4.67
2018-07-25T06:24:55.229Z,4.07
2018-07-25T06:27:22.409Z,4.07
2018-07-25T06:29:49.541Z,4.07
2018-07-25T06:32:16.689Z,3.90
2018-07-25T06:34:43.872Z,4.30
2018-07-25T06:37:11.062Z,4.03
2018-07-25T06:39:38.211Z,4.10
2018-07-25T06:42:06.125Z,4.50
2018-07-25T06:44:33.302Z,4.40
2018-07-25T06:47:00.477Z,4.40
2018-07-25T06:49:27.664Z,3.90
2018-07-25T06:51:54.812Z,4.50
2018-07-25T06:54:21.991Z,4.50
2018-07-25T06:56:49.142Z,4.50
2018-07-25T06:59:16.320Z,4.33
2018-07-25T07:01:43.509Z,4.30
2018-07-25T07:04:10.680Z,4.57
2018-07-25T07:06:37.905Z,4.40
2018-07-25T07:09:06.826Z,4.10
2018-07-25T07:11:33.984Z,4.53
2018-07-25T07:14:01.176Z,4.40
2018-07-25T07:16:28.334Z,4.37
2018-07-25T07:18:55.542Z,4.53
2018-07-25T07:21:22.755Z,4.23
2018-07-25T07:23:49.978Z,4.30
2018-07-25T07:26:17.128Z,4.27
2018-07-25T07:28:44.325Z,4.60
2018-07-25T07:31:11.495Z,3.93
2018-07-25T07:33:38.680Z,4.70
2018-07-25T07:36:05.821Z,4.00
2018-07-25T07:38:32.992Z,4.13
2018-07-25T07:41:00.167Z,4.50
2018-07-25T07:43:27.375Z,4.10
2018-07-25T07:45:54.531Z,4.40
2018-07-25T07:48:21.731Z,4.13
2018-07-25T07:50:48.934Z,4.20
2018-07-25T07:53:16.115Z,4.20
2018-07-25T07:55:43.307Z,3.77
2018-07-25T07:58:10.495Z,4.07
2018-07-25T08:00:37.711Z,3.63
2018-07-25T08:03:05.187Z,3.73
2018-07-25T08:05:33.045Z,3.70
2018-07-25T08:08:00.239Z,3.87
2018-07-25T08:10:27.454Z,3.27
2018-07-25T08:12:54.623Z,3.83
2018-07-25T08:15:21.807Z,3.80
2018-07-25T08:17:49.008Z,3.37
2018-07-25T08:20:16.231Z,3.47
2018-07-25T08:22:43.404Z,3.10
2018-07-25T08:25:10.705Z,3.33
2018-07-25T08:27:37.890Z,2.73
2018-07-25T08:30:05.338Z,3.27
2018-07-25T08:32:32.518Z,3.10
2018-07-25T08:34:59.683Z,2.80
2018-07-25T08:37:27.386Z,2.47
2018-07-25T08:39:54.576Z,2.90
2018-07-25T08:42:21.746Z,2.40
2018-07-25T08:44:48.912Z,2.43
2018-07-25T08:47:16.083Z,2.47
2018-07-25T08:49:43.258Z,2.20
2018-07-25T08:52:10.484Z,2.40
2018-07-25T08:54:37.622Z,2.30
2018-07-25T08:57:04.790Z,2.27
2018-07-25T08:59:31.960Z,2.47
2018-07-25T09:01:59.680Z,3.07
2018-07-25T09:04:27.996Z,2.57
2018-07-25T09:06:55.430Z,2.83
2018-07-25T09:09:22.631Z,2.80
2018-07-25T09:11:49.838Z,2.62
2018-07-25T09:14:17.005Z,2.63
2018-07-25T09:16:44.340Z,2.47
2018-07-25T09:19:11.501Z,2.40
2018-07-25T09:21:38.724Z,2.87
2018-07-25T09:24:05.902Z,2.40
2018-07-25T09:26:33.070Z,2.50
2018-07-25T09:29:00.263Z,2.55
2018-07-25T09:31:27.467Z,2.67
2018-07-25T09:33:54.787Z,2.65
2018-07-25T09:36:21.944Z,2.47
2018-07-25T09:38:49.184Z,2.50
2018-07-25T09:41:16.367Z,2.70
2018-07-25T09:43:43.605Z,2.80
2018-07-25T09:46:10.800Z,2.47
2018-07-25T09:48:38.011Z,2.70
2018-07-25T09:51:05.248Z,2.50
2018-07-25T09:53:32.441Z,2.65
2018-07-25T09:55:59.631Z,3.25
2018-07-25T09:58:26.939Z,3.33
2018-07-25T10:00:55.143Z,2.90
2018-07-25T10:03:22.352Z,2.70
2018-07-25T10:05:49.577Z,3.20
2018-07-25T10:08:17.295Z,2.90
2018-07-25T10:10:44.783Z,2.98
2018-07-25T10:13:11.926Z,3.08
2018-07-25T10:15:39.157Z,2.87
2018-07-25T10:18:06.387Z,2.75
2018-07-25T10:20:33.975Z,3.10
2018-07-25T10:23:01.089Z,2.92
2018-07-25T10:25:28.389Z,3.10
2018-07-25T10:27:55.624Z,2.87
2018-07-25T10:30:22.926Z,3.00
2018-07-25T10:32:50.163Z,3.00
2018-07-25T10:35:17.365Z,2.62
2018-07-25T10:37:44.539Z,2.70
2018-07-25T10:40:11.741Z,2.95
2018-07-25T10:42:39.016Z,2.80
2018-07-25T10:45:07.377Z,2.52
2018-07-25T10:47:34.608Z,2.50
2018-07-25T10:50:01.839Z,2.70
2018-07-25T10:52:29.073Z,2.80
2018-07-25T10:54:56.288Z,2.77
2018-07-25T10:57:23.528Z,2.80
2018-07-25T10:59:51.261Z,3.75
2018-07-25T11:02:18.659Z,3.20
2018-07-25T11:04:45.713Z,2.90
2018-07-25T11:07:12.944Z,2.70
2018-07-25T11:09:40.182Z,2.58
2018-07-25T11:12:07.379Z,2.60
2018-07-25T11:14:34.565Z,2.60
2018-07-25T11:17:01.812Z,2.60
2018-07-25T11:19:29.032Z,2.65
2018-07-25T11:21:56.239Z,2.85
2018-07-25T11:24:23.446Z,2.60
2018-07-25T11:26:50.626Z,2.60
2018-07-25T11:29:17.821Z,2.50
2018-07-25T11:31:45.007Z,2.50
2018-07-25T11:34:12.205Z,2.70
2018-07-25T11:36:39.394Z,2.55
2018-07-25T11:39:08.302Z,2.87
2018-07-25T11:41:35.614Z,2.45
2018-07-25T11:44:02.811Z,2.75
2018-07-25T11:46:30.007Z,2.40
2018-07-25T11:48:57.176Z,2.40
2018-07-25T11:51:24.424Z,2.47
2018-07-25T11:53:51.593Z,2.80
2018-07-25T11:56:18.775Z,2.58
2018-07-25T11:58:45.998Z,2.55
2018-07-25T12:01:13.285Z,2.30
2018-07-25T12:03:40.376Z,2.42
2018-07-25T12:06:07.539Z,2.65
2018-07-25T12:08:34.751Z,2.35
2018-07-25T12:11:01.973Z,2.25
2018-07-25T12:13:29.287Z,2.47
2018-07-25T12:15:56.497Z,2.45
2018-07-25T12:18:23.710Z,2.47
2018-07-25T12:20:50.910Z,2.77
2018-07-25T12:23:18.169Z,2.42
2018-07-25T12:25:45.389Z,2.70
2018-07-25T12:28:12.617Z,2.50
2018-07-25T12:30:39.817Z,2.58
2018-07-25T12:33:07.133Z,2.30
2018-07-25T12:35:34.347Z,2.40
2018-07-25T12:38:01.554Z,2.17
2018-07-25T12:40:28.786Z,2.50
2018-07-25T12:42:56.075Z,2.35
2018-07-25T12:45:23.194Z,2.60
2018-07-25T12:47:50.393Z,2.70
2018-07-25T12:50:17.615Z,2.40
2018-07-25T12:52:44.849Z,2.40
2018-07-25T12:55:12.110Z,2.55
2018-07-25T12:57:39.336Z,2.30
2018-07-25T13:00:07.430Z,2.12
2018-07-25T13:02:34.640Z,2.27
2018-07-25T13:05:01.826Z,2.10
2018-07-25T13:07:29.026Z,1.98
2018-07-25T13:09:56.270Z,2.60
2018-07-25T13:12:23.501Z,2.50
2018-07-25T13:14:50.713Z,2.30
2018-07-25T13:17:17.988Z,2.33
2018-07-25T13:19:45.184Z,2.20
2018-07-25T13:22:12.380Z,2.30
2018-07-25T13:24:39.614Z,2.22
2018-07-25T13:27:06.909Z,2.50
2018-07-25T13:29:34.117Z,2.22
2018-07-25T13:32:01.427Z,2.10
2018-07-25T13:34:28.627Z,2.20
2018-07-25T13:36:55.909Z,2.20
2018-07-25T13:39:23.079Z,2.10
2018-07-25T13:41:50.308Z,2.45
2018-07-25T13:44:17.505Z,2.20
2018-07-25T13:46:44.834Z,2.20
2018-07-25T13:49:12.129Z,2.67
2018-07-25T13:51:39.331Z,2.55
2018-07-25T13:54:06.578Z,2.60
2018-07-25T13:56:33.779Z,2.50
2018-07-25T13:59:00.995Z,2.15
2018-07-25T14:01:28.177Z,2.10
2018-07-25T14:03:55.535Z,2.33
2018-07-25T14:06:22.739Z,1.90
2018-07-25T14:08:49.948Z,2.12
2018-07-25T14:11:17.185Z,2.10
2018-07-25T14:13:44.409Z,2.12
2018-07-25T14:16:11.603Z,2.05
2018-07-25T14:18:38.825Z,2.60
2018-07-25T14:21:06.061Z,2.20
2018-07-25T14:23:33.390Z,2.80
2018-07-25T14:26:00.546Z,2.37
2018-07-25T14:28:27.750Z,2.42
2018-07-25T14:30:55.593Z,2.40
2018-07-25T14:33:22.806Z,2.05
2018-07-25T14:35:50.010Z,2.02
2018-07-25T14:38:17.258Z,2.35
2018-07-25T14:40:44.518Z,2.22
2018-07-25T14:43:11.762Z,2.15
2018-07-25T14:45:39.022Z,1.92
2018-07-25T14:48:06.289Z,2.42
2018-07-25T14:50:33.551Z,2.00
2018-07-25T14:53:00.769Z,2.05
2018-07-25T14:55:28.097Z,1.90
2018-07-25T14:57:55.335Z,1.90
2018-07-25T15:00:22.535Z,1.85
2018-07-25T15:02:49.817Z,1.72
2018-07-25T15:05:17.044Z,2.12
2018-07-25T15:07:44.250Z,2.08
2018-07-25T15:10:11.479Z,2.00
2018-07-25T15:12:42.873Z,2.00
2018-07-25T15:15:10.993Z,2.00
2018-07-25T15:17:38.299Z,2.37
2018-07-25T15:20:06.640Z,2.00
2018-07-25T15:22:33.855Z,1.90
2018-07-25T15:25:01.050Z,2.08
2018-07-25T15:27:28.328Z,2.15
2018-07-25T15:29:55.511Z,2.00
2018-07-25T15:32:22.795Z,2.25
2018-07-25T15:34:49.997Z,2.00
2018-07-25T15:37:17.246Z,2.00
2018-07-25T15:39:44.461Z,1.87
2018-07-25T15:42:11.658Z,2.15
2018-07-25T15:44:38.911Z,2.00
2018-07-25T15:47:06.115Z,2.00
2018-07-25T15:49:33.334Z,2.02
2018-07-25T15:52:00.554Z,1.87
2018-07-25T15:54:27.843Z,1.92
2018-07-25T15:56:55.053Z,1.70
2018-07-25T15:59:22.241Z,3.10
2018-07-25T16:01:49.479Z,2.62
2018-07-25T16:04:16.696Z,2.10
2018-07-25T16:06:43.881Z,1.95
2018-07-25T16:09:11.716Z,2.20
2018-07-25T16:11:39.566Z,2.35
2018-07-25T16:14:06.894Z,2.00
2018-07-25T16:16:34.098Z,1.80
2018-07-25T16:19:01.314Z,1.52
2018-07-25T16:21:28.504Z,2.10
2018-07-25T16:23:55.793Z,1.95
2018-07-25T16:26:23.007Z,1.72
2018-07-25T16:28:50.197Z,1.80
2018-07-25T16:31:17.471Z,2.00
2018-07-25T16:33:44.628Z,1.47
2018-07-25T16:36:11.819Z,1.82
2018-07-25T16:38:39.052Z,2.52
2018-07-25T16:41:06.231Z,2.05
2018-07-25T16:43:33.501Z,2.40
2018-07-25T16:46:00.843Z,2.20
2018-07-25T16:48:28.101Z,4.22
2018-07-25T16:50:55.265Z,2.70
2018-07-25T16:53:22.488Z,2.80
2018-07-25T16:55:49.651Z,2.02
2018-07-25T16:58:16.897Z,2.35
2018-07-25T17:00:44.123Z,3.22
2018-07-25T17:03:11.300Z,2.00
2018-07-25T17:05:38.747Z,2.40
2018-07-25T17:08:06.011Z,2.60
2018-07-25T17:10:33.222Z,2.10
2018-07-25T17:13:00.445Z,2.40
2018-07-25T17:15:27.647Z,2.25
2018-07-25T17:17:54.865Z,1.98
2018-07-25T17:20:22.099Z,4.12
2018-07-25T17:22:49.363Z,3.02
2018-07-25T17:25:16.771Z,1.90
2018-07-25T17:27:44.015Z,2.20
2018-07-25T17:30:11.249Z,3.58
2018-07-25T17:32:38.515Z,2.40
2018-07-25T17:35:06.552Z,2.70
2018-07-25T17:37:33.780Z,2.30
2018-07-25T17:40:00.980Z,3.92
2018-07-25T17:42:28.178Z,2.35
2018-07-25T17:44:55.448Z,4.80
2018-07-25T17:47:22.690Z,4.12
2018-07-25T17:49:49.930Z,5.05
2018-07-25T17:52:17.178Z,3.60
2018-07-25T17:54:44.372Z,2.12
2018-07-25T17:57:11.596Z,2.00
2018-07-25T17:59:38.868Z,2.52
2018-07-25T18:02:06.080Z,2.70
2018-07-25T18:04:33.398Z,2.40
2018-07-25T18:07:01.450Z,2.30
2018-07-25T18:09:28.723Z,2.12
2018-07-25T18:11:55.960Z,2.00
2018-07-25T18:14:23.208Z,2.33
2018-07-25T18:16:50.456Z,2.10
2018-07-25T18:19:17.711Z,2.20
2018-07-25T18:21:44.920Z,2.45
2018-07-25T18:24:12.419Z,2.40
2018-07-25T18:26:39.747Z,2.58
2018-07-25T18:29:06.996Z,2.22
2018-07-25T18:31:34.643Z,2.62
2018-07-25T18:34:01.924Z,2.40
2018-07-25T18:36:29.344Z,2.60
2018-07-25T18:38:56.586Z,2.58
2018-07-25T18:41:23.775Z,2.80
2018-07-25T18:43:51.004Z,2.40
2018-07-25T18:46:18.572Z,2.55
2018-07-25T18:48:45.822Z,2.40
2018-07-25T18:51:13.006Z,2.50
2018-07-25T18:53:40.243Z,2.40
2018-07-25T18:56:07.721Z,2.37
2018-07-25T18:58:35.035Z,2.27
2018-07-25T19:01:02.222Z,2.58
2018-07-25T19:03:29.571Z,2.52
2018-07-25T19:05:56.782Z,2.40
2018-07-25T19:08:23.974Z,2.30
2018-07-25T19:10:51.293Z,2.55
2018-07-25T19:13:24.023Z,2.60
2018-07-25T19:15:51.248Z,2.45
2018-07-25T19:18:18.516Z,2.90
2018-07-25T19:20:45.654Z,2.75
2018-07-25T19:23:12.834Z,3.10
2018-07-25T19:25:40.028Z,3.15
2018-07-25T19:28:07.226Z,2.95
2018-07-25T19:30:34.477Z,2.75
2018-07-25T19:33:01.679Z,2.47
2018-07-25T19:35:28.933Z,2.55
2018-07-25T19:37:56.149Z,2.33
2018-07-25T19:40:23.367Z,2.60
2018-07-25T19:42:50.649Z,2.47
2018-07-25T19:45:17.811Z,2.55
2018-07-25T19:47:44.998Z,2.50
2018-07-25T19:50:12.230Z,2.20
2018-07-25T19:52:39.441Z,2.27
2018-07-25T19:55:06.667Z,2.20
2018-07-25T19:57:33.873Z,2.37
2018-07-25T20:00:01.054Z,2.20
2018-07-25T20:02:28.287Z,2.25
2018-07-25T20:04:55.503Z,2.50
2018-07-25T20:07:22.772Z,2.20
2018-07-25T20:09:49.981Z,2.60
2018-07-25T20:12:17.217Z,2.67
2018-07-25T20:14:49.980Z,2.80
2018-07-25T20:17:17.214Z,2.60
2018-07-25T20:19:44.907Z,2.40
2018-07-25T20:22:12.764Z,2.67
2018-07-25T20:24:39.978Z,2.80
2018-07-25T20:27:07.202Z,2.52
2018-07-25T20:29:34.467Z,2.70
2018-07-25T20:32:01.672Z,2.20
2018-07-25T20:34:28.898Z,2.50
2018-07-25T20:36:56.077Z,2.70
2018-07-25T20:39:23.344Z,2.33
2018-07-25T20:41:50.569Z,2.67
2018-07-25T20:44:17.789Z,2.35
2018-07-25T20:46:45.012Z,2.77
2018-07-25T20:49:13.442Z,2.35
2018-07-25T20:51:40.649Z,2.60
2018-07-25T20:54:07.846Z,2.70
2018-07-25T20:56:35.108Z,2.60
2018-07-25T20:59:02.333Z,2.80
2018-07-25T21:01:29.578Z,2.60
2018-07-25T21:03:56.817Z,2.62
2018-07-25T21:06:24.557Z,2.47
2018-07-25T21:08:51.874Z,2.67
2018-07-25T21:11:19.269Z,2.90
2018-07-25T21:13:46.474Z,2.83
2018-07-25T21:16:13.759Z,2.45
2018-07-25T21:18:40.889Z,2.70
2018-07-25T21:21:08.160Z,2.70
2018-07-25T21:23:35.380Z,3.00
2018-07-25T21:26:02.629Z,2.90
2018-07-25T21:28:29.801Z,2.67
2018-07-25T21:30:57.041Z,2.50
2018-07-25T21:33:24.295Z,2.60
2018-07-25T21:35:51.507Z,2.72
2018-07-25T21:38:18.887Z,2.40
2018-07-25T21:40:46.093Z,2.50
2018-07-25T21:43:13.309Z,2.50
2018-07-25T21:45:40.769Z,2.58
2018-07-25T21:48:07.983Z,2.70
2018-07-25T21:50:35.200Z,2.80
2018-07-25T21:53:02.428Z,3.00
2018-07-25T21:55:29.712Z,2.90
2018-07-25T21:57:56.921Z,2.80
2018-07-25T22:00:24.193Z,2.70
2018-07-25T22:02:51.452Z,2.80
2018-07-25T22:05:18.640Z,2.87
2018-07-25T22:07:46.411Z,2.67
2018-07-25T22:10:13.617Z,2.50
2018-07-25T22:12:41.121Z,2.37
2018-07-25T22:15:09.416Z,2.60
2018-07-25T22:17:36.848Z,2.23
2018-07-25T22:20:05.234Z,2.70
2018-07-25T22:22:32.397Z,2.83
2018-07-25T22:24:59.604Z,2.50
2018-07-25T22:27:26.757Z,2.67
2018-07-25T22:29:53.901Z,2.50
2018-07-25T22:32:21.076Z,3.00
2018-07-25T22:34:48.297Z,2.53
2018-07-25T22:37:15.631Z,2.67
2018-07-25T22:39:43.305Z,2.60
2018-07-25T22:42:10.620Z,2.87
2018-07-25T22:44:37.833Z,3.00
2018-07-25T22:47:05.045Z,2.53
2018-07-25T22:49:32.236Z,2.57
2018-07-25T22:51:59.436Z,2.47
2018-07-25T22:54:26.603Z,2.60
2018-07-25T22:56:53.885Z,2.73
2018-07-25T22:59:21.064Z,2.60
2018-07-25T23:01:48.254Z,2.50
2018-07-25T23:04:15.440Z,2.30
2018-07-25T23:06:42.663Z,2.90
2018-07-25T23:09:10.806Z,2.63
2018-07-25T23:11:38.316Z,2.73
2018-07-25T23:14:05.531Z,2.80
2018-07-25T23:16:32.719Z,2.70
2018-07-25T23:18:59.930Z,2.63
2018-07-25T23:21:27.608Z,2.47
2018-07-25T23:23:54.772Z,2.70
2018-07-25T23:26:21.984Z,2.67
2018-07-25T23:28:49.168Z,2.30
2018-07-25T23:31:16.576Z,2.87
2018-07-25T23:33:43.770Z,2.93
2018-07-25T23:36:10.970Z,2.80
2018-07-25T23:38:38.193Z,3.07
2018-07-25T23:41:05.447Z,2.70
2018-07-25T23:43:32.686Z,2.80
2018-07-25T23:46:00.476Z,2.80
2018-07-25T23:48:27.698Z,2.83
2018-07-25T23:50:54.995Z,3.10
2018-07-25T23:53:22.260Z,3.20
2018-07-25T23:55:49.487Z,2.87
2018-07-25T23:58:16.674Z,2.50
